createdAt,value
2018-10-01T00:02:00.790Z,7.00
2018-10-01T00:04:29.098Z,6.70
2018-10-01T00:06:57.384Z,6.40
2018-10-01T00:09:25.692Z,6.10
2018-10-01T00:11:53.999Z,6.40
2018-10-01T00:14:22.309Z,6.90
2018-10-01T00:16:50.619Z,7.10
2018-10-01T00:19:24.330Z,7.40
2018-10-01T00:21:58.077Z,7.80
2018-10-01T00:24:26.379Z,8.40
2018-10-01T00:26:54.791Z,9.10
2018-10-01T00:29:23.091Z,8.90
2018-10-01T00:31:51.424Z,8.20
2018-10-01T00:34:19.722Z,7.70
2018-10-01T00:36:47.995Z,7.60
2018-10-01T00:39:16.294Z,7.80
2018-10-01T00:41:44.594Z,8.30
2018-10-01T00:44:12.895Z,8.40
2018-10-01T00:46:41.181Z,8.00
2018-10-01T00:49:09.486Z,7.80
2018-10-01T00:51:37.771Z,6.80
2018-10-01T00:54:06.127Z,6.20
2018-10-01T00:56:34.416Z,6.00
2018-10-01T00:59:02.705Z,5.80
2018-10-01T01:01:30.994Z,5.60
2018-10-01T01:03:59.275Z,5.50
2018-10-01T01:06:27.571Z,5.80
2018-10-01T01:08:55.845Z,6.10
2018-10-01T01:11:24.147Z,6.00
2018-10-01T01:13:52.431Z,5.90
2018-10-01T01:16:20.734Z,6.00
2018-10-01T01:18:49.018Z,6.20
2018-10-01T01:21:17.322Z,6.70
2018-10-01T01:23:45.597Z,6.90
2018-10-01T01:26:13.894Z,6.90
2018-10-01T01:28:42.179Z,6.70
2018-10-01T01:31:10.470Z,6.30
2018-10-01T01:33:38.746Z,6.00
2018-10-01T01:36:07.063Z,6.10
2018-10-01T01:38:35.402Z,6.00
2018-10-01T01:41:03.754Z,5.70
2018-10-01T01:43:32.031Z,5.90
2018-10-01T01:46:00.337Z,6.50
2018-10-01T01:48:28.642Z,6.90
2018-10-01T01:50:56.946Z,7.60
2018-10-01T01:53:25.230Z,8.10
2018-10-01T01:55:53.547Z,8.50
2018-10-01T01:58:21.825Z,9.00
2018-10-01T02:00:50.142Z,9.10
2018-10-01T02:03:18.420Z,8.80
2018-10-01T02:05:46.715Z,8.10
2018-10-01T02:08:14.994Z,7.40
2018-10-01T02:10:43.290Z,6.30
2018-10-01T02:13:11.566Z,6.00
2018-10-01T02:15:39.866Z,5.90
2018-10-01T02:18:08.137Z,5.90
2018-10-01T02:20:36.430Z,5.90
2018-10-01T02:23:04.715Z,6.00
2018-10-01T02:25:33.018Z,6.20
2018-10-01T02:28:01.291Z,6.10
2018-10-01T02:30:29.590Z,6.10
2018-10-01T02:32:57.870Z,6.20
2018-10-01T02:35:26.153Z,6.50
2018-10-01T02:37:54.427Z,6.60
2018-10-01T02:40:22.732Z,6.40
2018-10-01T02:42:51.035Z,6.20
2018-10-01T02:45:19.331Z,6.60
2018-10-01T02:47:47.657Z,7.10
2018-10-01T02:50:15.941Z,7.00
2018-10-01T02:52:49.658Z,6.50
2018-10-01T02:55:17.955Z,6.20
2018-10-01T02:57:46.234Z,6.00
2018-10-01T03:00:14.534Z,5.80
2018-10-01T03:02:42.818Z,5.80
2018-10-01T03:05:11.115Z,5.50
2018-10-01T03:07:39.390Z,5.50
2018-10-01T03:10:07.939Z,5.50
2018-10-01T03:12:36.214Z,5.70
2018-10-01T03:15:04.574Z,6.00
2018-10-01T03:17:32.862Z,6.80
2018-10-01T03:20:01.145Z,6.60
2018-10-01T03:22:29.438Z,6.30
2018-10-01T03:24:57.714Z,6.20
2018-10-01T03:27:26.026Z,6.20
2018-10-01T03:29:54.388Z,6.20
2018-10-01T03:32:22.695Z,6.10
2018-10-01T03:34:50.982Z,6.00
2018-10-01T03:37:19.370Z,5.90
2018-10-01T03:39:47.646Z,5.70
2018-10-01T03:42:15.968Z,5.40
2018-10-01T03:44:44.255Z,5.30
2018-10-01T03:47:12.561Z,5.40
2018-10-01T03:49:40.836Z,5.70
2018-10-01T03:52:09.126Z,6.10
2018-10-01T03:54:37.473Z,6.70
2018-10-01T03:57:05.779Z,6.60
2018-10-01T03:59:34.054Z,6.40
2018-10-01T04:02:02.354Z,6.40
2018-10-01T04:04:30.634Z,6.30
2018-10-01T04:06:58.939Z,6.20
2018-10-01T04:09:27.310Z,6.20
2018-10-01T04:11:55.627Z,6.30
2018-10-01T04:14:23.905Z,6.40
2018-10-01T04:16:52.203Z,6.50
2018-10-01T04:19:20.482Z,6.60
2018-10-01T04:21:48.773Z,6.60
2018-10-01T04:24:17.055Z,6.60
2018-10-01T04:26:45.347Z,6.40
2018-10-01T04:29:14.515Z,6.50
2018-10-01T04:31:43.730Z,6.40
2018-10-01T04:34:12.038Z,6.40
2018-10-01T04:36:40.343Z,6.40
2018-10-01T04:39:10.630Z,6.30
2018-10-01T04:41:39.342Z,6.30
2018-10-01T04:44:07.718Z,6.20
2018-10-01T04:46:36.654Z,6.20
2018-10-01T04:49:05.098Z,6.20
2018-10-01T04:51:33.394Z,6.30
2018-10-01T04:54:01.674Z,6.20
2018-10-01T04:56:29.975Z,6.10
2018-10-01T04:58:58.255Z,5.90
2018-10-01T05:01:26.621Z,5.90
2018-10-01T05:03:54.898Z,6.10
2018-10-01T05:06:23.198Z,6.10
2018-10-01T05:08:51.474Z,6.10
2018-10-01T05:11:19.773Z,6.00
2018-10-01T05:13:48.045Z,6.00
2018-10-01T05:16:16.354Z,6.10
2018-10-01T05:18:44.639Z,6.00
2018-10-01T05:21:12.943Z,6.00
2018-10-01T05:23:41.225Z,6.00
2018-10-01T05:26:09.526Z,6.00
2018-10-01T05:28:37.809Z,6.00
2018-10-01T05:31:06.818Z,5.80
2018-10-01T05:33:35.102Z,5.80
2018-10-01T05:36:03.390Z,5.90
2018-10-01T05:38:31.685Z,6.00
2018-10-01T05:40:59.952Z,6.10
2018-10-01T05:43:28.262Z,6.10
2018-10-01T05:45:56.539Z,6.10
2018-10-01T05:48:24.834Z,6.30
2018-10-01T05:50:53.213Z,6.40
2018-10-01T05:53:21.514Z,6.40
2018-10-01T05:55:49.796Z,6.40
2018-10-01T05:58:18.166Z,6.40
2018-10-01T06:00:46.394Z,6.30
2018-10-01T06:03:14.694Z,6.30
2018-10-01T06:05:42.970Z,6.40
2018-10-01T06:08:11.262Z,6.40
2018-10-01T06:10:39.534Z,6.30
2018-10-01T06:13:07.822Z,6.40
2018-10-01T06:15:36.109Z,6.50
2018-10-01T06:18:04.410Z,6.50
2018-10-01T06:20:32.687Z,6.80
2018-10-01T06:23:01.888Z,7.10
2018-10-01T06:25:30.170Z,7.30
2018-10-01T06:27:58.470Z,7.10
2018-10-01T06:30:26.810Z,6.90
2018-10-01T06:32:55.128Z,6.70
2018-10-01T06:35:23.441Z,6.60
2018-10-01T06:37:51.779Z,6.70
2018-10-01T06:40:20.035Z,6.80
2018-10-01T06:42:48.422Z,6.90
2018-10-01T06:45:16.804Z,7.10
2018-10-01T06:47:45.203Z,7.20
2018-10-01T06:50:13.482Z,7.40
2018-10-01T06:52:41.774Z,7.60
2018-10-01T06:55:10.051Z,7.90
2018-10-01T06:57:38.351Z,8.10
2018-10-01T07:00:08.023Z,8.10
2018-10-01T07:02:36.319Z,8.10
2018-10-01T07:05:04.617Z,8.20
2018-10-01T07:07:32.934Z,8.20
2018-10-01T07:10:01.213Z,8.20
2018-10-01T07:12:29.518Z,8.20
2018-10-01T07:14:57.797Z,8.20
2018-10-01T07:17:26.229Z,8.20
2018-10-01T07:19:54.448Z,8.10
2018-10-01T07:22:22.751Z,8.20
2018-10-01T07:24:51.034Z,8.20
2018-10-01T07:27:19.410Z,8.20
2018-10-01T07:29:47.698Z,8.20
2018-10-01T07:32:16.031Z,8.20
2018-10-01T07:34:44.334Z,8.20
2018-10-01T07:37:12.631Z,8.40
2018-10-01T07:39:40.922Z,8.50
2018-10-01T07:42:09.570Z,8.70
2018-10-01T07:44:37.858Z,8.70
2018-10-01T07:47:06.158Z,8.80
2018-10-01T07:49:34.466Z,8.80
2018-10-01T07:52:02.754Z,9.00
2018-10-01T07:54:31.162Z,9.20
2018-10-01T07:56:59.505Z,9.30
2018-10-01T07:59:27.840Z,9.30
2018-10-01T08:01:56.073Z,9.40
2018-10-01T08:04:24.397Z,9.30
2018-10-01T08:06:52.674Z,9.40
2018-10-01T08:09:20.985Z,9.60
2018-10-01T08:11:49.276Z,9.60
2018-10-01T08:14:17.626Z,9.70
2018-10-01T08:16:45.920Z,9.70
2018-10-01T08:19:14.213Z,9.80
2018-10-01T08:21:42.490Z,9.70
2018-10-01T08:24:10.790Z,9.70
2018-10-01T08:26:39.130Z,9.80
2018-10-01T08:29:07.449Z,10.00
2018-10-01T08:31:35.862Z,10.10
2018-10-01T08:34:04.165Z,10.10
2018-10-01T08:36:32.452Z,10.20
2018-10-01T08:39:00.798Z,10.20
2018-10-01T08:41:29.124Z,10.20
2018-10-01T08:43:57.465Z,10.20
2018-10-01T08:46:25.718Z,10.20
2018-10-01T08:48:59.337Z,10.40
2018-10-01T08:52:31.754Z,10.60
2018-10-01T08:55:00.060Z,10.70
2018-10-01T08:57:28.346Z,10.70
2018-10-01T08:59:56.649Z,10.60
2018-10-01T09:02:24.954Z,10.60
2018-10-01T09:04:53.273Z,10.60
2018-10-01T09:07:21.556Z,10.70
2018-10-01T09:09:49.858Z,10.90
2018-10-01T09:12:18.170Z,10.90
2018-10-01T09:14:46.617Z,11.00
2018-10-01T09:17:14.949Z,11.00
2018-10-01T09:19:43.263Z,11.10
2018-10-01T09:22:11.546Z,11.20
2018-10-01T09:24:39.850Z,11.30
2018-10-01T09:27:08.134Z,11.40
2018-10-01T09:29:36.447Z,11.40
2018-10-01T09:32:04.793Z,11.40
2018-10-01T09:34:33.072Z,11.50
2018-10-01T09:37:01.354Z,11.60
2018-10-01T09:39:29.658Z,11.50
2018-10-01T09:41:58.003Z,11.40
2018-10-01T09:44:26.358Z,11.50
2018-10-01T09:46:54.618Z,11.40
2018-10-01T09:49:22.932Z,11.30
2018-10-01T09:51:51.218Z,11.20
2018-10-01T09:54:19.518Z,11.20
2018-10-01T09:56:47.811Z,11.40
2018-10-01T09:59:16.134Z,11.30
2018-10-01T10:01:44.426Z,11.40
2018-10-01T10:04:12.747Z,11.50
2018-10-01T10:06:41.043Z,11.50
2018-10-01T10:09:10.538Z,11.60
2018-10-01T10:11:39.106Z,11.60
2018-10-01T10:14:07.657Z,11.50
2018-10-01T10:16:35.950Z,11.40
2018-10-01T10:19:04.246Z,11.50
2018-10-01T10:21:32.536Z,11.50
2018-10-01T10:24:00.842Z,11.70
2018-10-01T10:26:29.170Z,11.60
2018-10-01T10:28:57.494Z,11.50
2018-10-01T10:31:25.822Z,11.40
2018-10-01T10:33:54.160Z,11.30
2018-10-01T10:36:22.535Z,11.20
2018-10-01T10:38:50.847Z,11.30
2018-10-01T10:41:19.170Z,11.30
2018-10-01T10:43:47.546Z,11.20
2018-10-01T10:46:15.895Z,11.30
2018-10-01T10:48:44.285Z,11.40
2018-10-01T10:51:12.569Z,11.40
2018-10-01T10:53:40.870Z,11.50
2018-10-01T10:56:09.246Z,11.70
2018-10-01T10:58:37.514Z,11.50
2018-10-01T11:01:05.831Z,11.40
2018-10-01T11:03:34.149Z,11.30
2018-10-01T11:06:02.511Z,11.40
2018-10-01T11:08:30.856Z,11.50
2018-10-01T11:10:59.170Z,11.40
2018-10-01T11:13:27.454Z,11.50
2018-10-01T11:15:55.767Z,11.60
2018-10-01T11:18:24.058Z,11.50
2018-10-01T11:20:52.436Z,11.40
2018-10-01T11:23:20.754Z,11.40
2018-10-01T11:25:49.059Z,11.30
2018-10-01T11:28:17.395Z,11.40
2018-10-01T11:30:45.726Z,11.50
2018-10-01T11:33:14.122Z,11.60
2018-10-01T11:35:42.341Z,11.70
2018-10-01T11:38:10.650Z,11.50
2018-10-01T11:40:38.996Z,11.50
2018-10-01T11:43:07.302Z,11.70
2018-10-01T11:45:35.615Z,11.50
2018-10-01T11:48:03.902Z,11.50
2018-10-01T11:50:32.205Z,11.50
2018-10-01T11:53:00.496Z,11.50
2018-10-01T11:55:28.805Z,11.50
2018-10-01T11:57:57.095Z,11.90
2018-10-01T12:00:25.406Z,12.10
2018-10-01T12:02:53.691Z,12.20
2018-10-01T12:05:21.995Z,12.00
2018-10-01T12:07:50.287Z,11.90
2018-10-01T12:10:18.645Z,11.80
2018-10-01T12:12:46.924Z,11.80
2018-10-01T12:15:15.260Z,11.80
2018-10-01T12:17:43.527Z,11.80
2018-10-01T12:20:11.845Z,11.80
2018-10-01T12:22:40.133Z,11.80
2018-10-01T12:25:08.442Z,11.90
2018-10-01T12:27:36.832Z,11.80
2018-10-01T12:30:05.080Z,11.80
2018-10-01T12:32:33.374Z,11.90
2018-10-01T12:35:01.743Z,11.90
2018-10-01T12:37:29.996Z,11.60
2018-10-01T12:39:58.324Z,11.40
2018-10-01T12:42:26.658Z,11.20
2018-10-01T12:44:54.976Z,11.00
2018-10-01T12:47:23.279Z,10.80
2018-10-01T12:49:51.582Z,10.70
2018-10-01T12:52:19.857Z,10.80
2018-10-01T12:54:48.166Z,10.90
2018-10-01T12:57:16.593Z,11.00
2018-10-01T12:59:44.819Z,11.10
2018-10-01T13:02:13.113Z,11.10
2018-10-01T13:04:41.426Z,11.20
2018-10-01T13:07:09.711Z,11.10
2018-10-01T13:09:38.024Z,10.90
2018-10-01T13:12:06.348Z,10.90
2018-10-01T13:14:34.638Z,10.80
2018-10-01T13:17:02.942Z,10.80
2018-10-01T13:19:31.243Z,10.80
2018-10-01T13:21:59.556Z,10.80
2018-10-01T13:24:27.909Z,10.70
2018-10-01T13:26:56.174Z,10.60
2018-10-01T13:29:24.602Z,10.60
2018-10-01T13:31:53.007Z,10.40
2018-10-01T13:34:21.328Z,10.30
2018-10-01T13:36:49.739Z,10.30
2018-10-01T13:39:18.038Z,10.20
2018-10-01T13:41:46.420Z,10.20
2018-10-01T13:44:14.743Z,10.30
2018-10-01T13:46:43.007Z,10.30
2018-10-01T13:49:11.285Z,10.30
2018-10-01T13:51:39.595Z,10.30
2018-10-01T13:54:07.899Z,10.30
2018-10-01T13:56:36.213Z,10.20
2018-10-01T13:59:04.518Z,10.20
2018-10-01T14:01:32.862Z,10.20
2018-10-01T14:04:01.149Z,10.20
2018-10-01T14:06:29.522Z,10.10
2018-10-01T14:08:57.787Z,10.10
2018-10-01T14:11:26.090Z,10.00
2018-10-01T14:13:54.446Z,10.00
2018-10-01T14:16:22.729Z,10.00
2018-10-01T14:18:51.022Z,10.00
2018-10-01T14:21:19.322Z,9.90
2018-10-01T14:23:47.627Z,9.90
2018-10-01T14:26:15.942Z,9.70
2018-10-01T14:28:44.254Z,9.50
2018-10-01T14:31:12.582Z,9.30
2018-10-01T14:33:40.862Z,9.10
2018-10-01T14:36:09.192Z,9.00
2018-10-01T14:38:37.470Z,8.90
2018-10-01T14:41:05.870Z,8.90
2018-10-01T14:43:34.183Z,8.90
2018-10-01T14:46:02.490Z,9.00
2018-10-01T14:48:30.790Z,8.90
2018-10-01T14:50:59.104Z,9.00
2018-10-01T14:53:27.403Z,8.90
2018-10-01T14:55:55.795Z,9.00
2018-10-01T14:58:24.079Z,9.00
2018-10-01T15:00:52.444Z,9.00
2018-10-01T15:03:20.706Z,9.00
2018-10-01T15:05:49.011Z,9.00
2018-10-01T15:08:17.295Z,9.00
2018-10-01T15:10:45.627Z,9.00
2018-10-01T15:13:13.921Z,9.00
2018-10-01T15:15:42.226Z,9.20
2018-10-01T15:18:10.670Z,9.10
2018-10-01T15:20:38.906Z,9.20
2018-10-01T15:23:07.329Z,9.30
2018-10-01T15:25:35.610Z,9.30
2018-10-01T15:28:04.868Z,9.40
2018-10-01T15:30:33.988Z,9.40
2018-10-01T15:33:02.378Z,9.50
2018-10-01T15:35:30.741Z,9.50
2018-10-01T15:37:59.056Z,9.40
2018-10-01T15:40:27.303Z,9.40
2018-10-01T15:42:55.614Z,9.30
2018-10-01T15:45:23.926Z,9.40
2018-10-01T15:47:52.230Z,9.40
2018-10-01T15:50:20.608Z,9.40
2018-10-01T15:52:48.910Z,9.40
2018-10-01T15:55:17.197Z,9.40
2018-10-01T15:57:45.503Z,9.40
2018-10-01T16:00:13.798Z,9.40
2018-10-01T16:02:42.099Z,9.30
2018-10-01T16:05:10.392Z,9.40
2018-10-01T16:07:38.710Z,9.40
2018-10-01T16:10:07.006Z,9.30
2018-10-01T16:12:35.305Z,9.40
2018-10-01T16:15:03.672Z,9.50
2018-10-01T16:17:31.983Z,9.60
2018-10-01T16:20:00.263Z,9.80
2018-10-01T16:22:28.566Z,9.90
2018-10-01T16:24:56.846Z,9.80
2018-10-01T16:27:25.155Z,9.70
2018-10-01T16:29:53.430Z,9.70
2018-10-01T16:32:21.727Z,9.50
2018-10-01T16:34:50.010Z,9.50
2018-10-01T16:37:18.307Z,9.40
2018-10-01T16:39:46.590Z,9.30
2018-10-01T16:42:14.918Z,9.40
2018-10-01T16:44:43.219Z,9.30
2018-10-01T16:47:11.542Z,9.30
2018-10-01T16:49:39.834Z,9.40
2018-10-01T16:52:08.830Z,9.30
2018-10-01T16:54:37.022Z,9.20
2018-10-01T16:57:05.322Z,9.20
2018-10-01T16:59:33.598Z,9.20
2018-10-01T17:02:01.903Z,9.10
2018-10-01T17:04:31.436Z,8.90
2018-10-01T17:06:59.801Z,8.80
2018-10-01T17:09:28.092Z,8.70
2018-10-01T17:11:56.391Z,8.70
2018-10-01T17:14:24.699Z,8.70
2018-10-01T17:16:53.011Z,8.70
2018-10-01T17:19:21.429Z,8.80
2018-10-01T17:21:49.658Z,8.80
2018-10-01T17:24:17.935Z,8.90
2018-10-01T17:26:46.236Z,8.90
2018-10-01T17:29:14.518Z,9.00
2018-10-01T17:31:42.814Z,8.90
2018-10-01T17:34:11.110Z,9.00
2018-10-01T17:36:39.406Z,9.10
2018-10-01T17:39:08.854Z,9.10
2018-10-01T17:41:37.571Z,9.10
2018-10-01T17:44:05.882Z,9.20
2018-10-01T17:46:34.169Z,9.20
2018-10-01T17:49:02.470Z,9.00
2018-10-01T17:51:30.894Z,9.00
2018-10-01T17:53:59.289Z,9.10
2018-10-01T17:56:27.573Z,9.00
2018-10-01T17:58:55.883Z,9.00
2018-10-01T18:01:24.223Z,9.00
2018-10-01T18:03:52.563Z,9.00
2018-10-01T18:06:20.905Z,8.90
2018-10-01T18:08:49.203Z,8.80
2018-10-01T18:11:17.482Z,8.70
2018-10-01T18:13:45.798Z,8.50
2018-10-01T18:16:14.087Z,8.40
2018-10-01T18:18:42.507Z,8.40
2018-10-01T18:21:10.793Z,8.50
2018-10-01T18:23:39.082Z,8.60
2018-10-01T18:26:07.470Z,8.50
2018-10-01T18:28:35.776Z,8.50
2018-10-01T18:31:04.069Z,8.50
2018-10-01T18:33:32.379Z,8.40
2018-10-01T18:36:00.803Z,8.40
2018-10-01T18:38:28.993Z,8.30
2018-10-01T18:40:57.277Z,8.30
2018-10-01T18:43:25.843Z,8.30
2018-10-01T18:45:54.114Z,8.30
2018-10-01T18:48:22.503Z,8.30
2018-10-01T18:50:50.723Z,8.30
2018-10-01T18:53:19.022Z,8.30
2018-10-01T18:55:47.322Z,8.20
2018-10-01T18:58:15.636Z,8.20
2018-10-01T19:00:43.932Z,8.20
2018-10-01T19:03:12.238Z,8.20
2018-10-01T19:05:40.532Z,8.20
2018-10-01T19:08:08.898Z,8.20
2018-10-01T19:10:37.414Z,8.10
2018-10-01T19:13:05.735Z,8.10
2018-10-01T19:15:34.023Z,8.10
2018-10-01T19:18:02.344Z,8.10
2018-10-01T19:20:30.667Z,8.10
2018-10-01T19:22:58.974Z,8.20
2018-10-01T19:25:27.257Z,8.20
2018-10-01T19:27:55.561Z,8.30
2018-10-01T19:30:23.913Z,8.20
2018-10-01T19:32:52.266Z,8.20
2018-10-01T19:35:20.608Z,8.20
2018-10-01T19:37:48.911Z,8.10
2018-10-01T19:40:17.189Z,8.00
2018-10-01T19:42:45.557Z,8.00
2018-10-01T19:45:13.867Z,7.90
2018-10-01T19:47:42.167Z,7.90
2018-10-01T19:50:10.474Z,7.90
2018-10-01T19:52:38.763Z,7.80
2018-10-01T19:55:07.323Z,7.90
2018-10-01T19:57:35.648Z,7.90
2018-10-01T20:00:04.015Z,8.00
2018-10-01T20:02:32.262Z,8.10
2018-10-01T20:05:00.708Z,8.00
2018-10-01T20:07:28.992Z,8.10
2018-10-01T20:09:57.338Z,8.00
2018-10-01T20:12:25.611Z,7.90
2018-10-01T20:14:53.943Z,7.90
2018-10-01T20:17:22.312Z,7.80
2018-10-01T20:19:50.587Z,7.80
2018-10-01T20:22:18.918Z,7.70
2018-10-01T20:24:47.209Z,7.70
2018-10-01T20:27:15.526Z,7.80
2018-10-01T20:29:44.023Z,7.80
2018-10-01T20:32:12.195Z,7.80
2018-10-01T20:34:40.534Z,7.80
2018-10-01T20:37:08.818Z,7.80
2018-10-01T20:39:37.119Z,7.80
2018-10-01T20:42:05.447Z,8.00
2018-10-01T20:44:33.757Z,7.90
2018-10-01T20:47:02.053Z,7.90
2018-10-01T20:49:30.356Z,7.90
2018-10-01T20:51:58.654Z,8.00
2018-10-01T20:54:26.978Z,7.90
2018-10-01T20:56:55.267Z,7.90
2018-10-01T20:59:23.592Z,7.80
2018-10-01T21:01:51.979Z,7.70
2018-10-01T21:04:20.274Z,7.70
2018-10-01T21:06:48.565Z,7.70
2018-10-01T21:09:16.858Z,7.60
2018-10-01T21:11:45.150Z,7.60
2018-10-01T21:14:13.535Z,7.60
2018-10-01T21:16:41.766Z,7.60
2018-10-01T21:19:10.071Z,7.60
2018-10-01T21:21:38.347Z,7.60
2018-10-01T21:24:06.746Z,7.60
2018-10-01T21:26:35.034Z,7.50
2018-10-01T21:29:03.338Z,7.50
2018-10-01T21:31:31.667Z,7.50
2018-10-01T21:34:00.036Z,7.60
2018-10-01T21:36:28.294Z,7.50
2018-10-01T21:38:56.594Z,7.50
2018-10-01T21:41:24.897Z,7.50
2018-10-01T21:43:53.213Z,7.50
2018-10-01T21:46:21.490Z,7.50
2018-10-01T21:48:49.800Z,7.40
2018-10-01T21:51:18.129Z,7.40
2018-10-01T21:53:46.446Z,7.40
2018-10-01T21:56:14.738Z,7.30
2018-10-01T21:58:43.018Z,7.30
2018-10-01T22:01:16.802Z,7.30
2018-10-01T22:03:45.084Z,7.40
2018-10-01T22:06:13.386Z,7.40
2018-10-01T22:08:41.663Z,7.40
2018-10-01T22:11:09.966Z,7.40
2018-10-01T22:13:38.247Z,7.40
2018-10-01T22:16:06.555Z,7.30
2018-10-01T22:18:34.842Z,7.30
2018-10-01T22:21:03.139Z,7.20
2018-10-01T22:23:31.429Z,7.20
2018-10-01T22:25:59.724Z,7.10
2018-10-01T22:28:28.014Z,7.20
2018-10-01T22:30:56.310Z,7.20
2018-10-01T22:33:24.583Z,7.20
2018-10-01T22:35:52.899Z,7.10
2018-10-01T22:38:21.186Z,7.00
2018-10-01T22:40:49.474Z,7.00
2018-10-01T22:43:17.775Z,7.00
2018-10-01T22:45:46.074Z,7.00
2018-10-01T22:48:14.349Z,7.00
2018-10-01T22:50:42.646Z,7.00
2018-10-01T22:53:10.922Z,6.90
2018-10-01T22:55:39.230Z,6.90
2018-10-01T22:58:07.516Z,6.80
2018-10-01T23:00:35.826Z,6.80
2018-10-01T23:03:04.090Z,6.90
2018-10-01T23:05:32.385Z,6.80
2018-10-01T23:08:00.670Z,6.70
2018-10-01T23:10:28.977Z,6.80
2018-10-01T23:12:57.257Z,6.80
2018-10-01T23:15:25.558Z,6.80
2018-10-01T23:17:53.830Z,6.80
2018-10-01T23:20:22.126Z,6.80
2018-10-01T23:22:50.405Z,6.80
2018-10-01T23:25:18.689Z,6.70
2018-10-01T23:27:46.961Z,6.60
2018-10-01T23:30:15.258Z,6.50
2018-10-01T23:32:43.537Z,6.50
2018-10-01T23:35:11.842Z,6.50
2018-10-01T23:37:40.114Z,6.50
2018-10-01T23:40:08.406Z,6.40
2018-10-01T23:42:36.702Z,6.50
2018-10-01T23:45:05.270Z,6.50
2018-10-01T23:47:33.546Z,6.50
2018-10-01T23:50:01.842Z,6.50
2018-10-01T23:52:30.110Z,6.50
2018-10-01T23:54:58.401Z,6.40
2018-10-01T23:57:26.669Z,6.50
2018-10-01T23:59:54.961Z,6.50
